METAR

METAR LDZA 182330Z 23004KT CAVOK 09/06 Q1016 NOSIG =
METAR LDSP 182330Z AUTO 35005KT CAVOK 14/09 Q1018=
METAR LDDU 182330Z 09002KT CAVOK 14/14 Q1019 =
METAR LDZD 182330Z 14001KT 5000 BCFG NSC 07/07 Q1018 =
METAR LDPL 182330Z AUTO 06003KT 0300 R27/0375U -SHRA FEW006/// 11/11 Q1019=
METAR LDOS 182330Z VRB01KT 2000 BR NSC 09/08 Q1016=
METAR LDRI 182330Z 12003KT CAVOK 11/10 Q1019=

TAF

TAF LDZA 182325Z 1900/2000 23005KT CAVOK
                 TX22/1913Z TN08/1903Z=
TAF LDSP 182325Z 1900/2000 VRB02KT CAVOK
                 TX24/1912Z TN13/1905Z
           TEMPO 1911/1916 23006KT
           BECMG 1918/1920 05006KT=
TAF LDDU 182325Z 1900/2000 VRB02KT CAVOK
                 TX23/1912Z TN13/1905Z
           BECMG 1908/1910 12006KT=
TAF LDZD 182325Z 1900/2000 VRB02KT 3000 BCFG NSC
                 TX23/1903Z TN07/1904Z
    PROB30 TEMPO 1900/1906 0500 FG
           BECMG 1906/1908 CAVOK
          PROB30 1920/2000 3000 BCFG=
TAF LDPL 182325Z 1900/2000 VRB02KT 2000 BR NSC
                 TX21/1912Z TN10/1904Z
    PROB30 TEMPO 1900/1906 0500 FG
           BECMG 1906/1908 7000 NSW
          PROB40 1918/1920 2000 BR=
TAF LDOS 182325Z 1900/2000 VRB02KT 2000 BR NSC
                 TX24/1913Z TN09/1905Z
    PROB30 TEMPO 1902/1906 0600 FG
           BECMG 1908/1910 CAVOK=
TAF LDRI 182325Z 1900/2000 VRB02KT CAVOK
                 TX21/1912Z TN10/1904Z=

SIGMET

AIRMET

LDZO AIRMET 14 VALID 182300/190300 LDZA-
LDZO ZAGREB FIR MOD MTW FCST WI N4640 E01629 - N4555 E01727 - N4429
E01509 - N4528 E01412 - N4640 E01629 ABV 3000FT STNR NC=

Ukoliko se brzina i smjer vjetra ne mogu odrediti zbog privremenog kvara sustava/indikatora,
informacija o vjetru u METAR izvješću bit će prikazana kao "/////KT".

 

         

      Politika MET podataka      

 

Disclaimer

 

In case of temporary system/sensor failure, wind speed and direction data will be represented as "/////KT" in METAR report.